Time;durP1;ratioP1;P1;durP2;ratioP2;P2;SDS_P1;SDS_P2;PMS_P1;PMS_P2;Temp;Humidity;BMP_temperature;BMP_pressure;BME280_temperature;BME280_humidity;BME280_pressure;Samples;Min_cycle;Max_cycle;Signal;HPM_P1;HPM_P2
2023/03/14 00:02:26;;;;;;;3.63;2.00;;;22.40;40.10;;;;;;5045729;28;20033;-56
2023/03/14 00:04:56;;;;;;;3.10;1.92;;;22.40;40.20;;;;;;5050782;28;20052;-56
2023/03/14 00:07:24;;;;;;;4.38;1.95;;;22.40;40.20;;;;;;5051396;28;20029;-53
2023/03/14 00:09:51;;;;;;;4.78;1.83;;;22.40;40.20;;;;;;5049838;28;20049;-58
2023/03/14 00:12:16;;;;;;;2.75;1.50;;;22.40;40.20;;;;;;5050177;28;20033;-56
2023/03/14 00:14:43;;;;;;;3.42;1.75;;;22.40;40.20;;;;;;5050329;28;20063;-56
2023/03/14 00:17:09;;;;;;;3.05;1.52;;;22.40;40.20;;;;;;5050167;28;20032;-55
2023/03/14 00:19:35;;;;;;;3.40;1.67;;;22.40;40.20;;;;;;5052271;28;20040;-56
2023/03/14 00:22:01;;;;;;;3.95;1.88;;;22.30;40.20;;;;;;5051509;28;20500;-57
2023/03/14 00:24:26;;;;;;;3.35;1.58;;;22.30;40.20;;;;;;5051543;28;20059;-58
2023/03/14 00:26:52;;;;;;;2.75;1.65;;;22.30;40.20;;;;;;5047931;28;20033;-57
2023/03/14 00:29:18;;;;;;;3.67;1.38;;;22.30;40.20;;;;;;5049270;28;20064;-56
2023/03/14 00:31:44;;;;;;;3.50;1.40;;;22.30;40.30;;;;;;5052249;28;20083;-56
2023/03/14 00:34:10;;;;;;;2.97;1.30;;;22.30;40.30;;;;;;5047184;28;20024;-56
2023/03/14 00:36:36;;;;;;;2.45;1.20;;;22.30;40.30;;;;;;5049953;28;20045;-56
2023/03/14 00:39:03;;;;;;;3.45;1.50;;;22.30;40.30;;;;;;5049239;28;20039;-53
2023/03/14 00:41:30;;;;;;;3.55;1.50;;;22.30;40.30;;;;;;5051473;28;20371;-57
2023/03/14 00:43:56;;;;;;;2.75;1.30;;;22.30;40.40;;;;;;5073422;28;20059;-57
2023/03/14 00:46:22;;;;;;;1.75;1.15;;;22.30;40.30;;;;;;5049801;28;20039;-56
2023/03/14 00:48:48;;;;;;;2.65;1.45;;;22.30;40.30;;;;;;5046257;28;20128;-56
2023/03/14 00:51:14;;;;;;;3.28;1.10;;;22.20;40.20;;;;;;5049642;28;20029;-57
2023/03/14 00:53:43;;;;;;;2.80;1.60;;;22.20;40.20;;;;;;5049814;28;20440;-57
2023/03/14 00:56:11;;;;;;;2.47;1.30;;;22.20;40.10;;;;;;5050759;28;20047;-56
2023/03/14 00:58:37;;;;;;;2.25;1.00;;;22.20;40.10;;;;;;5050593;28;20125;-57
2023/03/14 01:01:08;;;;;;;2.58;1.30;;;22.20;40.10;;;;;;5047815;28;20021;-54
2023/03/14 01:03:34;;;;;;;2.45;1.25;;;22.20;40.00;;;;;;5050561;28;20021;-56
2023/03/14 01:06:20;;;;;;;3.20;1.10;;;22.20;40.00;;;;;;5050434;28;20020;-56
2023/03/14 01:08:48;;;;;;;3.92;1.00;;;22.20;39.90;;;;;;5049093;28;21749;-57
2023/03/14 01:11:17;;;;;;;2.15;1.15;;;22.20;39.90;;;;;;5049633;28;20033;-55
2023/03/14 01:13:43;;;;;;;2.35;1.15;;;22.20;39.90;;;;;;5048091;28;20028;-58
2023/03/14 01:16:11;;;;;;;2.30;1.10;;;22.10;39.90;;;;;;5031982;28;20033;-58
2023/03/14 01:18:39;;;;;;;2.65;1.10;;;22.10;39.90;;;;;;5045986;28;20389;-55
2023/03/14 01:21:16;;;;;;;2.70;0.85;;;22.10;39.80;;;;;;5050254;28;20115;-56
2023/03/14 01:23:43;;;;;;;2.80;1.40;;;22.10;39.80;;;;;;5048243;28;20510;-57
2023/03/14 01:26:11;;;;;;;2.65;1.15;;;22.10;39.80;;;;;;5048148;28;20040;-57
2023/03/14 01:28:37;;;;;;;2.45;1.00;;;22.10;39.80;;;;;;5046521;28;20487;-56
2023/03/14 01:31:05;;;;;;;2.78;1.02;;;22.10;39.70;;;;;;5045464;28;20037;-56
2023/03/14 01:33:31;;;;;;;2.38;0.95;;;22.10;39.70;;;;;;5047308;28;20049;-58
2023/03/14 01:35:57;;;;;;;1.92;0.95;;;22.10;39.70;;;;;;5048221;28;20072;-56
2023/03/14 01:38:23;;;;;;;1.98;0.90;;;22.00;39.60;;;;;;5047514;28;20028;-56
2023/03/14 01:40:49;;;;;;;3.13;1.15;;;22.00;39.60;;;;;;5046827;28;20108;-58
2023/03/14 01:43:17;;;;;;;2.92;1.23;;;22.00;39.60;;;;;;5048035;28;20027;-55
2023/03/14 01:46:19;;;;;;;2.67;1.10;;;22.00;39.60;;;;;;5048513;28;20021;-55
2023/03/14 01:48:47;;;;;;;1.92;0.95;;;22.00;39.50;;;;;;5059894;28;20040;-54
2023/03/14 01:51:52;;;;;;;2.60;1.20;;;22.00;39.50;;;;;;5053802;28;20090;-55
2023/03/14 01:54:35;;;;;;;2.88;1.00;;;22.00;39.50;;;;;;4996969;28;20388;-57
2023/03/14 01:57:30;;;;;;;1.67;0.88;;;21.90;39.50;;;;;;5048710;28;20052;-58
2023/03/14 02:00:00;;;;;;;2.08;0.93;;;22.00;39.60;;;;;;5059825;28;20037;-53
2023/03/14 02:02:28;;;;;;;1.88;0.90;;;21.90;39.60;;;;;;5044904;28;20054;-56
2023/03/14 02:04:56;;;;;;;2.60;0.90;;;21.90;39.60;;;;;;5048968;28;20171;-57
2023/03/14 02:07:39;;;;;;;1.70;0.90;;;21.90;39.70;;;;;;5029334;28;20101;-57
2023/03/14 02:10:18;;;;;;;2.00;0.88;;;21.90;39.80;;;;;;5047984;28;20487;-58
2023/03/14 02:12:46;;;;;;;3.65;1.10;;;21.90;39.80;;;;;;5074606;28;20389;-53
2023/03/14 02:15:26;;;;;;;1.67;0.80;;;21.90;39.90;;;;;;5046606;28;20045;-56
2023/03/14 02:18:17;;;;;;;2.22;0.80;;;21.90;39.90;;;;;;5050567;28;20079;-57
2023/03/14 02:21:35;;;;;;;1.98;0.82;;;21.90;40.00;;;;;;5047792;28;20045;-56
2023/03/14 02:24:31;;;;;;;1.42;0.82;;;21.80;40.00;;;;;;5047933;28;20032;-55
2023/03/14 02:27:14;;;;;;;1.70;0.75;;;21.90;40.10;;;;;;5048880;28;20044;-56
2023/03/14 02:30:09;;;;;;;2.80;1.10;;;21.90;40.20;;;;;;5047674;28;20463;-57
2023/03/14 02:32:40;;;;;;;2.88;0.98;;;21.80;40.20;;;;;;5050309;28;20044;-56
2023/03/14 02:35:11;;;;;;;2.22;0.93;;;21.80;40.30;;;;;;5048350;28;20403;-57
2023/03/14 02:37:53;;;;;;;1.92;0.70;;;21.80;40.30;;;;;;5047240;28;20029;-57
2023/03/14 02:40:19;;;;;;;1.75;0.60;;;21.80;40.30;;;;;;5048714;28;20068;-57
2023/03/14 02:42:48;;;;;;;3.40;0.95;;;21.80;40.40;;;;;;5045260;28;20388;-57
2023/03/14 02:45:13;;;;;;;1.95;0.88;;;21.80;40.40;;;;;;5045011;28;20040;-54
2023/03/14 02:47:59;;;;;;;3.38;1.00;;;21.80;40.40;;;;;;5044309;28;20021;-54
2023/03/14 02:50:30;;;;;;;1.27;0.63;;;21.80;40.50;;;;;;5062830;28;20037;-54
2023/03/14 02:52:56;;;;;;;2.55;1.00;;;21.80;40.50;;;;;;5040698;28;20199;-56
2023/03/14 02:55:23;;;;;;;1.88;0.70;;;21.80;40.60;;;;;;5046178;28;20510;-57
2023/03/14 02:57:51;;;;;;;1.67;0.70;;;21.80;40.60;;;;;;5044713;28;20017;-56
2023/03/14 03:00:17;;;;;;;2.47;0.90;;;21.80;40.60;;;;;;5047415;28;20036;-56
2023/03/14 03:02:43;;;;;;;2.63;0.88;;;21.70;40.60;;;;;;5045691;28;20029;-56
2023/03/14 03:05:09;;;;;;;1.95;0.75;;;21.70;40.60;;;;;;5048115;28;20036;-57
2023/03/14 03:07:35;;;;;;;1.98;0.80;;;21.70;40.60;;;;;;5043796;28;20407;-55
2023/03/14 03:10:01;;;;;;;3.03;0.80;;;21.70;40.70;;;;;;5039619;28;20064;-55
2023/03/14 03:12:27;;;;;;;3.33;0.70;;;21.70;40.70;;;;;;5047934;28;20036;-54
2023/03/14 03:14:53;;;;;;;2.00;0.70;;;21.70;40.70;;;;;;5046779;28;20037;-56
2023/03/14 03:17:19;;;;;;;1.90;0.95;;;21.70;40.70;;;;;;5031329;28;20029;-55
2023/03/14 03:19:45;;;;;;;1.40;0.73;;;21.60;40.70;;;;;;5045613;28;20455;-55
2023/03/14 03:22:11;;;;;;;1.80;0.55;;;21.70;40.70;;;;;;5049251;28;20029;-58
2023/03/14 03:24:40;;;;;;;1.70;0.70;;;21.70;40.70;;;;;;5043648;28;20436;-58
2023/03/14 03:27:06;;;;;;;2.08;0.80;;;21.70;40.70;;;;;;5049697;28;20029;-55
2023/03/14 03:29:32;;;;;;;2.65;0.80;;;21.70;40.70;;;;;;5046991;28;20033;-57
2023/03/14 03:31:58;;;;;;;2.53;0.98;;;21.60;40.60;;;;;;5053209;28;21239;-54
2023/03/14 03:34:24;;;;;;;1.98;0.80;;;21.60;40.70;;;;;;5049178;28;20029;-57
2023/03/14 03:36:55;;;;;;;2.15;0.90;;;21.60;40.60;;;;;;5049770;28;20035;-57
2023/03/14 03:39:21;;;;;;;2.53;0.70;;;21.60;40.60;;;;;;5050188;28;20033;-57
2023/03/14 03:41:48;;;;;;;2.22;0.70;;;21.60;40.60;;;;;;5051130;28;20509;-56
2023/03/14 03:44:13;;;;;;;2.03;0.75;;;21.60;40.70;;;;;;5049915;28;20115;-56
2023/03/14 03:46:40;;;;;;;2.70;1.00;;;21.60;40.60;;;;;;5052594;28;20051;-55
2023/03/14 03:49:07;;;;;;;1.85;0.70;;;21.50;40.60;;;;;;5049759;28;20103;-54
2023/03/14 03:51:33;;;;;;;1.95;0.85;;;21.60;40.60;;;;;;5048700;28;20043;-56
2023/03/14 03:53:59;;;;;;;2.97;0.80;;;21.50;40.60;;;;;;5050531;28;20024;-56
2023/03/14 03:56:31;;;;;;;2.05;0.90;;;21.60;40.60;;;;;;5048308;28;20053;-55
2023/03/14 03:58:57;;;;;;;2.63;0.88;;;21.50;40.60;;;;;;5050513;28;20029;-55
2023/03/14 04:01:23;;;;;;;2.42;0.90;;;21.50;40.60;;;;;;5051005;28;20356;-55
2023/03/14 04:03:52;;;;;;;3.78;0.95;;;21.50;40.60;;;;;;5047439;28;20364;-55
2023/03/14 04:06:19;;;;;;;2.70;0.80;;;21.50;40.60;;;;;;5053193;28;20051;-55
2023/03/14 04:08:47;;;;;;;2.67;0.98;;;21.50;40.60;;;;;;5048872;28;20033;-57
2023/03/14 04:11:36;;;;;;;4.93;1.05;;;21.50;40.50;;;;;;5050012;28;20056;-57
2023/03/14 04:14:20;;;;;;;3.28;0.82;;;21.50;40.50;;;;;;5048820;28;20429;-56
2023/03/14 04:16:48;;;;;;;2.45;0.70;;;21.50;40.50;;;;;;5046679;28;20025;-54
2023/03/14 04:19:16;;;;;;;2.65;0.88;;;21.50;40.50;;;;;;5049396;28;20059;-58
2023/03/14 04:21:45;;;;;;;2.50;0.85;;;21.50;40.50;;;;;;5050587;28;20029;-53
2023/03/14 04:24:11;;;;;;;2.28;0.90;;;21.50;40.50;;;;;;5048989;28;20021;-56
2023/03/14 04:26:38;;;;;;;1.20;0.55;;;21.50;40.50;;;;;;5048805;28;20468;-55
2023/03/14 04:29:04;;;;;;;3.50;0.93;;;21.40;40.40;;;;;;5049526;28;20091;-56
2023/03/14 04:31:30;;;;;;;3.42;0.73;;;21.50;40.50;;;;;;5050340;28;20044;-54
2023/03/14 04:33:56;;;;;;;1.95;0.75;;;21.40;40.40;;;;;;5048975;28;20086;-55
2023/03/14 04:36:29;;;;;;;3.50;1.05;;;21.40;40.40;;;;;;5049353;28;20444;-56
2023/03/14 04:38:57;;;;;;;2.25;0.75;;;21.40;40.40;;;;;;5051552;28;20419;-56
2023/03/14 04:41:24;;;;;;;2.90;0.90;;;21.40;40.40;;;;;;5049027;28;20071;-57
2023/03/14 04:43:50;;;;;;;2.03;0.70;;;21.40;40.40;;;;;;5050082;28;20555;-56
2023/03/14 04:46:16;;;;;;;2.35;0.70;;;21.40;40.40;;;;;;5047271;28;20029;-53
2023/03/14 04:48:43;;;;;;;3.33;1.13;;;21.40;40.40;;;;;;5046354;28;20041;-56
2023/03/14 04:51:09;;;;;;;2.55;0.90;;;21.40;40.40;;;;;;5048994;28;20033;-58
2023/03/14 04:53:36;;;;;;;2.33;0.80;;;21.40;40.40;;;;;;5031934;28;20040;-56
2023/03/14 04:56:06;;;;;;;2.53;0.80;;;21.40;40.40;;;;;;5050707;28;20060;-56
2023/03/14 04:58:36;;;;;;;2.33;1.05;;;21.40;40.40;;;;;;5047572;28;20119;-55
2023/03/14 05:01:04;;;;;;;2.60;0.98;;;21.40;40.40;;;;;;5049080;28;20033;-57
2023/03/14 05:03:50;;;;;;;3.15;1.15;;;21.30;40.30;;;;;;5049378;28;20032;-56
2023/03/14 05:06:36;;;;;;;2.75;0.80;;;21.30;40.30;;;;;;5048767;28;20041;-56
2023/03/14 05:09:04;;;;;;;2.50;0.90;;;21.40;40.30;;;;;;5050119;28;20051;-56
2023/03/14 05:11:53;;;;;;;2.03;0.73;;;21.30;40.30;;;;;;5049637;28;20059;-55
2023/03/14 05:14:39;;;;;;;1.92;0.70;;;21.30;40.30;;;;;;5046691;28;20037;-55
2023/03/14 05:17:23;;;;;;;2.67;0.90;;;21.30;40.40;;;;;;5046872;28;20043;-56
2023/03/14 05:20:16;;;;;;;2.10;0.80;;;21.30;40.40;;;;;;5048928;28;20479;-53
2023/03/14 05:23:09;;;;;;;1.90;0.70;;;21.30;40.40;;;;;;5045694;28;20017;-56
2023/03/14 05:25:58;;;;;;;1.95;0.77;;;21.30;40.40;;;;;;5048647;28;20032;-54
2023/03/14 05:28:43;;;;;;;2.42;0.63;;;21.30;40.40;;;;;;5047425;28;20091;-55
2023/03/14 05:31:17;;;;;;;2.08;0.60;;;21.30;40.40;;;;;;5049796;28;20033;-54
2023/03/14 05:34:03;;;;;;;2.10;0.80;;;21.30;40.40;;;;;;5048820;28;20174;-54
2023/03/14 05:36:38;;;;;;;1.73;0.60;;;21.20;40.40;;;;;;5049721;28;20021;-53
2023/03/14 05:39:33;;;;;;;;;;;21.20;40.40;;;;;;5049227;28;20037;-58
2023/03/14 05:42:08;;;;;;;1.70;0.60;;;21.20;40.40;;;;;;5049610;28;20248;-56
2023/03/14 05:44:55;;;;;;;1.13;0.60;;;21.20;40.40;;;;;;5052526;28;20024;-56
2023/03/14 05:47:40;;;;;;;2.50;0.60;;;21.20;40.40;;;;;;5053093;28;20424;-56
2023/03/14 05:50:19;;;;;;;2.88;0.88;;;21.20;40.50;;;;;;5046585;28;20435;-55
2023/03/14 05:52:55;;;;;;;2.17;0.80;;;21.20;40.50;;;;;;5042092;28;20017;-56
2023/03/14 05:55:42;;;;;;;1.92;0.82;;;21.20;40.50;;;;;;5049228;28;20379;-56
2023/03/14 05:58:19;;;;;;;2.08;0.60;;;21.20;40.60;;;;;;5047485;28;20514;-57
2023/03/14 06:01:12;;;;;;;1.58;0.60;;;21.20;40.60;;;;;;5048369;28;20036;-56
2023/03/14 06:03:58;;;;;;;2.13;0.60;;;21.20;40.60;;;;;;5045159;28;20025;-53
2023/03/14 06:06:24;;;;;;;2.47;0.77;;;21.20;40.70;;;;;;5049681;28;20036;-55
2023/03/14 06:08:50;;;;;;;1.70;0.52;;;21.20;40.70;;;;;;5045130;28;20068;-55
2023/03/14 06:11:17;;;;;;;1.60;0.60;;;21.10;40.60;;;;;;5045038;28;20329;-55
2023/03/14 06:13:43;;;;;;;2.25;0.77;;;21.20;40.70;;;;;;5043699;28;20029;-56
2023/03/14 06:16:09;;;;;;;1.25;0.50;;;21.20;40.80;;;;;;5048902;28;20035;-56
2023/03/14 06:18:35;;;;;;;1.88;0.60;;;21.20;40.80;;;;;;5051750;28;20495;-56
2023/03/14 06:21:01;;;;;;;1.17;0.55;;;21.10;40.70;;;;;;5047306;28;20024;-53
2023/03/14 06:23:27;;;;;;;1.80;0.65;;;21.20;40.80;;;;;;5047885;28;20032;-59
2023/03/14 06:25:54;;;;;;;0.98;0.40;;;21.10;40.80;;;;;;5043942;28;20025;-55
2023/03/14 06:28:22;;;;;;;1.67;0.73;;;21.10;40.90;;;;;;5047489;28;20075;-58
2023/03/14 06:30:48;;;;;;;1.30;0.50;;;21.10;40.90;;;;;;5047083;28;20094;-52
2023/03/14 06:33:15;;;;;;;1.40;0.50;;;21.10;40.90;;;;;;5046408;28;20381;-57
2023/03/14 06:35:41;;;;;;;1.15;0.45;;;21.10;41.00;;;;;;5045513;28;20064;-56
2023/03/14 06:38:07;;;;;;;1.92;0.50;;;21.10;41.00;;;;;;5045385;28;20052;-55
2023/03/14 06:40:33;;;;;;;0.75;0.30;;;21.10;41.00;;;;;;5046614;28;20488;-56
2023/03/14 06:43:05;;;;;;;0.57;0.30;;;21.10;41.10;;;;;;5043894;28;20330;-55
2023/03/14 06:45:33;;;;;;;1.95;0.50;;;21.10;41.10;;;;;;5045946;28;20349;-57
2023/03/14 06:48:01;;;;;;;0.88;0.38;;;21.10;41.20;;;;;;5047745;28;20055;-54
2023/03/14 06:50:37;;;;;;;0.70;0.30;;;21.10;41.20;;;;;;5041862;28;20452;-56
2023/03/14 06:53:04;;;;;;;1.30;0.40;;;21.10;41.30;;;;;;5046801;28;20083;-58
2023/03/14 06:55:31;;;;;;;0.75;0.38;;;21.10;41.30;;;;;;5049035;28;20072;-57
2023/03/14 06:57:57;;;;;;;1.45;0.40;;;21.10;41.30;;;;;;5048471;28;20061;-58
2023/03/14 07:00:23;;;;;;;1.48;0.50;;;21.10;41.40;;;;;;5046202;28;20082;-56
2023/03/14 07:02:53;;;;;;;1.00;0.40;;;21.10;41.40;;;;;;5045892;28;20407;-56
2023/03/14 07:05:29;;;;;;;1.35;0.60;;;21.10;41.40;;;;;;5050007;28;20029;-53
2023/03/14 07:07:55;;;;;;;1.70;0.68;;;21.10;41.50;;;;;;5049508;28;20111;-55
2023/03/14 07:10:21;;;;;;;1.80;0.57;;;21.10;41.50;;;;;;5047747;28;20171;-57
2023/03/14 07:12:47;;;;;;;1.50;0.47;;;21.10;41.60;;;;;;5051202;28;20032;-55
2023/03/14 07:15:13;;;;;;;0.80;0.30;;;21.10;41.60;;;;;;5051872;28;20044;-55
2023/03/14 07:17:38;;;;;;;0.60;0.30;;;21.10;41.70;;;;;;5050909;28;20395;-55
2023/03/14 07:20:05;;;;;;;0.80;0.40;;;21.10;41.70;;;;;;5052868;28;20044;-54
2023/03/14 07:22:33;;;;;;;1.83;0.60;;;21.10;41.80;;;;;;5048486;28;20037;-54
2023/03/14 07:24:59;;;;;;;0.60;0.40;;;21.10;41.80;;;;;;5055478;28;20021;-54
2023/03/14 07:27:25;;;;;;;1.48;0.60;;;21.00;41.80;;;;;;5047523;28;20029;-55
2023/03/14 07:29:51;;;;;;;1.45;0.50;;;21.00;41.80;;;;;;5040507;28;20099;-53
2023/03/14 07:32:18;;;;;;;0.75;0.50;;;21.00;41.80;;;;;;5044904;28;20033;-55
2023/03/14 07:34:44;;;;;;;1.45;0.57;;;21.10;42.00;;;;;;5042928;28;20400;-57
2023/03/14 07:37:10;;;;;;;1.17;0.65;;;21.10;42.00;;;;;;5047466;28;20027;-54
2023/03/14 07:39:36;;;;;;;0.77;0.57;;;21.00;41.90;;;;;;5048346;28;20053;-54
2023/03/14 07:42:11;;;;;;;0.90;0.50;;;21.00;41.80;;;;;;5037827;28;20066;-54
2023/03/14 07:44:48;;;;;;;0.82;0.50;;;21.00;41.70;;;;;;5042032;28;20361;-56
2023/03/14 07:47:14;;;;;;;2.47;1.00;;;21.00;41.70;;;;;;5040358;28;20075;-57
2023/03/14 07:49:40;;;;;;;2.45;1.20;;;21.00;41.70;;;;;;5043203;28;20038;-55
2023/03/14 07:52:06;;;;;;;1.92;1.15;;;21.00;41.60;;;;;;5046024;28;20025;-57
2023/03/14 07:54:32;;;;;;;4.30;1.50;;;21.00;41.70;;;;;;5045800;28;20033;-57
2023/03/14 07:57:00;;;;;;;2.63;1.90;;;21.00;41.70;;;;;;5043489;28;20045;-56
2023/03/14 07:59:27;;;;;;;4.93;2.72;;;21.00;41.70;;;;;;5048537;28;20104;-56
2023/03/14 08:01:52;;;;;;;2.85;2.42;;;21.10;41.80;;;;;;5043382;28;20029;-56
2023/03/14 08:04:18;;;;;;;5.22;3.20;;;21.10;41.80;;;;;;5039188;28;20029;-56
2023/03/14 08:06:44;;;;;;;4.18;3.33;;;21.10;41.70;;;;;;5048016;28;20031;-57
2023/03/14 08:09:10;;;;;;;4.57;3.53;;;21.20;41.70;;;;;;5042608;28;20342;-56
2023/03/14 08:11:36;;;;;;;4.80;3.58;;;21.20;41.70;;;;;;5043743;28;20365;-59
2023/03/14 08:14:02;;;;;;;4.53;3.63;;;21.30;41.60;;;;;;5047965;28;20057;-57
2023/03/14 08:16:28;;;;;;;4.28;3.42;;;21.30;41.40;;;;;;5045802;28;20029;-57
2023/03/14 08:18:54;;;;;;;4.93;3.33;;;21.40;41.30;;;;;;5039876;28;20941;-58
2023/03/14 08:21:20;;;;;;;4.45;3.00;;;21.50;41.30;;;;;;5058014;28;20028;-58
2023/03/14 08:23:47;;;;;;;3.88;3.00;;;21.50;41.00;;;;;;5055033;28;20060;-58
2023/03/14 08:26:13;;;;;;;4.22;2.88;;;21.60;40.90;;;;;;5054688;28;20060;-59
2023/03/14 08:28:39;;;;;;;4.40;2.70;;;21.70;40.80;;;;;;5054596;28;20078;-56
2023/03/14 08:31:05;;;;;;;3.00;2.40;;;21.80;40.70;;;;;;5053936;28;20471;-56
2023/03/14 08:33:31;;;;;;;4.85;2.67;;;21.80;40.50;;;;;;5053374;28;20512;-59
2023/03/14 08:35:59;;;;;;;2.85;2.30;;;21.90;40.40;;;;;;5048664;28;20025;-59
2023/03/14 08:38:25;;;;;;;3.05;2.28;;;22.00;40.20;;;;;;5043319;28;20352;-56
2023/03/14 08:40:59;;;;;;;3.58;2.70;;;22.00;40.00;;;;;;5045765;28;20104;-57
2023/03/14 08:43:26;;;;;;;3.20;2.30;;;22.10;39.90;;;;;;5044731;28;20041;-59
2023/03/14 08:45:52;;;;;;;4.90;2.70;;;22.10;39.80;;;;;;5042385;28;20064;-56
2023/03/14 08:48:19;;;;;;;3.42;2.50;;;22.20;39.60;;;;;;5039839;28;20461;-55
2023/03/14 08:50:46;;;;;;;2.90;2.20;;;22.30;39.50;;;;;;5048541;28;20044;-57
2023/03/14 08:53:12;;;;;;;3.35;2.58;;;22.30;39.30;;;;;;5048399;28;20047;-58
2023/03/14 08:55:37;;;;;;;3.40;2.20;;;22.40;39.20;;;;;;5048216;28;20029;-54
2023/03/14 08:58:03;;;;;;;2.55;2.13;;;22.40;39.00;;;;;;5034144;28;20017;-55
2023/03/14 09:00:29;;;;;;;2.42;2.05;;;22.50;38.80;;;;;;5040899;28;20064;-55
2023/03/14 09:02:55;;;;;;;2.97;2.50;;;22.50;38.60;;;;;;5056115;28;20029;-57
2023/03/14 09:05:21;;;;;;;2.65;2.00;;;22.60;38.50;;;;;;5055965;28;20071;-58
2023/03/14 09:07:47;;;;;;;2.55;1.85;;;22.60;38.30;;;;;;5057463;28;20369;-57
2023/03/14 09:10:12;;;;;;;2.97;2.35;;;22.70;38.10;;;;;;5070347;28;20399;-55
2023/03/14 09:12:38;;;;;;;2.50;2.03;;;22.70;38.00;;;;;;5056110;28;20020;-55
2023/03/14 09:15:05;;;;;;;2.28;1.88;;;22.80;37.90;;;;;;5054175;28;20048;-55
2023/03/14 09:17:30;;;;;;;3.28;2.00;;;22.80;37.70;;;;;;5053071;28;20025;-54
2023/03/14 09:19:56;;;;;;;2.25;1.88;;;22.80;37.60;;;;;;5054439;28;20031;-57
2023/03/14 09:22:22;;;;;;;3.78;1.80;;;22.80;37.40;;;;;;5054055;28;20356;-56
2023/03/14 09:24:48;;;;;;;2.78;2.05;;;22.80;37.30;;;;;;5053803;28;20043;-56
2023/03/14 09:27:14;;;;;;;2.55;2.03;;;22.80;37.20;;;;;;5053199;28;20044;-57
2023/03/14 09:29:40;;;;;;;2.15;1.60;;;22.90;37.20;;;;;;5051700;28;20045;-57
2023/03/14 09:32:06;;;;;;;3.30;1.90;;;22.90;37.10;;;;;;5054076;28;20494;-58
2023/03/14 09:34:31;;;;;;;2.15;1.77;;;22.90;37.00;;;;;;5053488;28;20475;-57
2023/03/14 09:36:57;;;;;;;3.33;2.47;;;22.90;36.90;;;;;;5052561;28;20029;-57
2023/03/14 09:39:24;;;;;;;2.75;2.10;;;22.90;36.80;;;;;;5052807;28;20028;-57
2023/03/14 09:41:54;;;;;;;2.38;2.05;;;22.90;36.70;;;;;;5052748;28;20043;-57
2023/03/14 09:44:30;;;;;;;3.40;2.00;;;22.90;36.60;;;;;;5053211;28;20017;-56
2023/03/14 09:47:02;;;;;;;3.20;2.15;;;22.90;36.50;;;;;;5052056;28;20057;-58
2023/03/14 09:49:31;;;;;;;2.05;1.63;;;22.90;36.40;;;;;;5052344;28;20043;-57
2023/03/14 09:52:01;;;;;;;2.55;1.80;;;22.90;36.30;;;;;;5051675;28;20037;-57
2023/03/14 09:54:32;;;;;;;2.78;1.95;;;22.90;36.20;;;;;;5051522;28;20046;-57
2023/03/14 09:56:58;;;;;;;2.45;1.90;;;22.90;36.10;;;;;;5051440;28;20471;-55
2023/03/14 09:59:26;;;;;;;2.72;2.13;;;22.90;36.10;;;;;;5054114;28;20028;-54
2023/03/14 10:01:52;;;;;;;3.08;2.15;;;22.90;35.90;;;;;;5053179;28;20029;-56
2023/03/14 10:04:22;;;;;;;2.40;1.98;;;22.90;35.80;;;;;;5052624;28;20074;-55
2023/03/14 10:06:49;;;;;;;2.80;2.00;;;22.90;35.60;;;;;;5052683;28;20021;-55
2023/03/14 10:09:26;;;;;;;2.90;1.90;;;22.90;35.60;;;;;;5052848;28;20048;-56
2023/03/14 10:11:59;;;;;;;2.20;1.60;;;22.90;35.50;;;;;;5051236;28;20428;-58
2023/03/14 10:14:36;;;;;;;3.42;1.90;;;22.90;35.40;;;;;;5052698;28;20040;-58
2023/03/14 10:17:10;;;;;;;2.60;2.00;;;22.90;35.30;;;;;;5052157;28;20471;-58
2023/03/14 10:19:38;;;;;;;2.85;2.10;;;22.90;35.20;;;;;;5053237;28;20028;-57
2023/03/14 10:22:05;;;;;;;2.97;2.05;;;22.90;35.20;;;;;;5052615;28;20025;-54
2023/03/14 10:24:35;;;;;;;3.50;2.30;;;22.90;35.10;;;;;;5052418;28;20024;-56
2023/03/14 10:27:05;;;;;;;2.83;2.30;;;22.90;35.00;;;;;;5050397;28;20033;-56
2023/03/14 10:29:33;;;;;;;3.15;2.10;;;22.90;34.90;;;;;;5049829;28;20084;-56
2023/03/14 10:32:01;;;;;;;3.63;2.83;;;22.80;34.80;;;;;;5053054;28;20037;-55
2023/03/14 10:34:33;;;;;;;4.47;2.80;;;22.80;34.70;;;;;;5052614;28;20403;-56
2023/03/14 10:37:21;;;;;;;3.67;2.50;;;22.80;34.70;;;;;;5052701;28;20029;-56
2023/03/14 10:39:58;;;;;;;3.55;2.47;;;22.80;34.60;;;;;;5053491;28;20033;-57
2023/03/14 10:42:34;;;;;;;4.80;3.03;;;22.80;34.50;;;;;;5056241;28;20035;-57
2023/03/14 10:45:03;;;;;;;4.43;2.60;;;22.80;34.50;;;;;;5055374;28;20113;-53
2023/03/14 10:47:29;;;;;;;5.30;3.10;;;22.80;34.50;;;;;;5056141;28;20029;-58
2023/03/14 10:49:56;;;;;;;5.38;3.38;;;22.80;34.40;;;;;;5055929;28;20531;-58
2023/03/14 10:52:29;;;;;;;6.28;3.15;;;22.80;34.50;;;;;;5054549;28;20458;-56
2023/03/14 10:55:09;;;;;;;5.05;3.38;;;22.80;34.40;;;;;;5050497;28;20095;-55
2023/03/14 10:57:42;;;;;;;6.03;3.95;;;22.80;34.40;;;;;;5055410;28;20454;-57
2023/03/14 11:00:22;;;;;;;5.70;4.00;;;22.70;34.50;;;;;;5055761;28;20033;-58
2023/03/14 11:02:54;;;;;;;8.45;6.03;;;22.70;34.60;;;;;;5056050;28;20090;-55
2023/03/14 11:05:25;;;;;;;9.45;7.75;;;22.70;34.80;;;;;;5059544;28;20131;-57
2023/03/14 11:07:56;;;;;;;12.15;8.45;;;22.70;35.00;;;;;;5067577;28;20491;-58
2023/03/14 11:10:25;;;;;;;12.20;8.35;;;22.70;35.10;;;;;;5050761;28;20453;-56
2023/03/14 11:13:12;;;;;;;10.50;8.00;;;22.70;35.00;;;;;;5048340;28;20455;-56
2023/03/14 11:16:01;;;;;;;11.82;8.32;;;22.70;35.00;;;;;;5051935;28;20358;-56
2023/03/14 11:18:41;;;;;;;11.65;7.97;;;22.70;34.90;;;;;;5054860;28;20029;-58
2023/03/14 11:21:25;;;;;;;11.00;7.57;;;22.70;34.90;;;;;;5054359;28;20048;-58
2023/03/14 11:24:06;;;;;;;8.80;6.95;;;22.70;34.80;;;;;;5053269;28;20024;-59
2023/03/14 11:26:53;;;;;;;11.88;7.53;;;22.70;34.80;;;;;;5054927;28;20037;-57
2023/03/14 11:29:40;;;;;;;10.25;7.25;;;22.70;34.80;;;;;;5045428;28;20465;-56
2023/03/14 11:32:36;;;;;;;10.30;7.45;;;22.70;34.70;;;;;;5050681;28;20029;-55
2023/03/14 11:35:28;;;;;;;12.07;8.73;;;22.70;34.70;;;;;;5054100;28;20032;-58
2023/03/14 11:38:29;;;;;;;14.80;11.48;;;22.70;34.80;;;;;;5052057;28;20029;-56
2023/03/14 11:40:57;;;;;;;15.75;12.15;;;22.60;35.20;;;;;;5052488;28;20021;-58
2023/03/14 11:43:34;;;;;;;18.85;13.98;;;22.70;35.50;;;;;;5039556;28;20030;-58
2023/03/14 11:46:14;;;;;;;17.40;14.75;;;22.70;35.80;;;;;;5051688;28;20028;-56
2023/03/14 11:48:57;;;;;;;17.83;14.38;;;22.80;36.00;;;;;;5046379;28;20028;-61
2023/03/14 11:51:34;;;;;;;17.27;13.10;;;22.90;35.90;;;;;;5047953;28;20032;-59
2023/03/14 11:54:18;;;;;;;15.48;13.60;;;22.90;35.70;;;;;;5050073;28;20396;-59
2023/03/14 11:56:59;;;;;;;18.20;14.38;;;23.00;35.60;;;;;;5053805;28;20098;-58
2023/03/14 11:59:44;;;;;;;16.92;14.57;;;23.10;35.60;;;;;;5054378;28;20333;-58
2023/03/14 12:02:20;;;;;;;18.73;15.45;;;23.20;35.50;;;;;;5051962;28;21605;-59
2023/03/14 12:05:25;;;;;;;17.98;14.30;;;23.40;35.50;;;;;;5054085;28;20444;-56
2023/03/14 12:08:12;;;;;;;17.08;14.52;;;23.40;35.20;;;;;;5034886;28;20084;-56
2023/03/14 12:10:46;;;;;;;17.23;13.77;;;23.50;35.00;;;;;;5046688;28;21815;-54
2023/03/14 12:13:13;;;;;;;;;;;23.60;34.70;;;;;;5052609;28;20071;-54
2023/03/14 12:15:46;;;;;;;15.20;12.07;;;23.60;34.50;;;;;;5053554;28;20069;-55
2023/03/14 12:18:27;;;;;;;14.70;10.88;;;23.70;34.30;;;;;;5058216;28;20067;-59
2023/03/14 12:20:57;;;;;;;14.18;11.45;;;23.80;34.30;;;;;;5071832;28;20037;-58
2023/03/14 12:23:24;;;;;;;13.63;10.48;;;23.80;34.10;;;;;;5057086;28;20508;-56
2023/03/14 12:26:07;;;;;;;22.75;9.57;;;23.80;33.90;;;;;;5053611;28;20028;-57
2023/03/14 12:28:34;;;;;;;13.65;9.65;;;23.90;33.70;;;;;;5054177;28;20029;-58
2023/03/14 12:31:31;;;;;;;14.13;11.05;;;24.00;33.60;;;;;;5056228;28;20467;-59
2023/03/14 12:34:04;;;;;;;15.65;12.57;;;24.00;33.40;;;;;;5054217;28;20028;-58
2023/03/14 12:36:53;;;;;;;17.02;13.15;;;24.10;33.30;;;;;;5052613;28;20025;-56
2023/03/14 12:39:47;;;;;;;17.35;14.73;;;24.10;33.10;;;;;;5054334;28;20033;-56
2023/03/14 12:42:17;;;;;;;16.73;14.07;;;24.20;33.10;;;;;;5054372;28;20041;-55
2023/03/14 12:44:51;;;;;;;18.63;14.88;;;24.20;33.10;;;;;;5048370;28;20021;-56
2023/03/14 12:47:20;;;;;;;19.25;14.88;;;24.20;33.10;;;;;;5050803;28;20033;-56
2023/03/14 12:49:49;;;;;;;18.10;15.60;;;24.30;33.20;;;;;;5054030;28;20352;-56
2023/03/14 12:52:57;;;;;;;19.60;14.43;;;24.30;33.20;;;;;;5051262;28;20025;-52
2023/03/14 12:55:36;;;;;;;18.42;15.57;;;24.30;33.20;;;;;;5039440;28;20052;-57
2023/03/14 12:58:14;;;;;;;22.23;17.33;;;24.40;33.20;;;;;;5051606;28;20099;-54
2023/03/14 13:00:41;;;;;;;23.27;17.88;;;24.40;33.20;;;;;;5052846;28;20494;-52
2023/03/14 13:03:22;;;;;;;21.45;17.08;;;24.40;33.20;;;;;;5052291;28;20040;-55
2023/03/14 13:06:01;;;;;;;23.45;18.65;;;24.40;33.30;;;;;;5056172;28;20452;-54
2023/03/14 13:08:39;;;;;;;21.98;18.08;;;24.50;33.40;;;;;;5061896;28;20036;-55
2023/03/14 13:11:15;;;;;;;22.92;19.63;;;24.50;33.30;;;;;;5068218;28;20050;-57